sensor_id;sensor_type;location;lat;lon;timestamp;temperature;humidity
36186;DHT22;22228;53.222;7.446;2023-02-26T00:00:48;-1.10;99.90
36186;DHT22;22228;53.222;7.446;2023-02-26T00:03:09;-1.10;99.90
36186;DHT22;22228;53.222;7.446;2023-02-26T00:05:30;-1.20;99.90
36186;DHT22;22228;53.222;7.446;2023-02-26T00:07:50;-1.30;99.90
36186;DHT22;22228;53.222;7.446;2023-02-26T00:10:12;-1.30;99.90
36186;DHT22;22228;53.222;7.446;2023-02-26T00:12:36;-1.40;99.90
36186;DHT22;22228;53.222;7.446;2023-02-26T00:14:57;-1.30;99.90
36186;DHT22;22228;53.222;7.446;2023-02-26T00:17:29;-1.30;99.90
36186;DHT22;22228;53.222;7.446;2023-02-26T00:19:52;-1.20;99.90
36186;DHT22;22228;53.222;7.446;2023-02-26T00:22:13;-1.30;99.90
36186;DHT22;22228;53.222;7.446;2023-02-26T00:24:34;-1.40;99.90
36186;DHT22;22228;53.222;7.446;2023-02-26T00:26:54;-1.40;99.90
36186;DHT22;22228;53.222;7.446;2023-02-26T00:29:17;-1.40;99.90
36186;DHT22;22228;53.222;7.446;2023-02-26T00:31:38;-1.50;99.90
36186;DHT22;22228;53.222;7.446;2023-02-26T00:34:00;-1.50;99.90
36186;DHT22;22228;53.222;7.446;2023-02-26T00:36:22;-1.50;99.90
36186;DHT22;22228;53.222;7.446;2023-02-26T00:38:46;-1.50;99.90
36186;DHT22;22228;53.222;7.446;2023-02-26T00:41:09;-1.60;99.90
36186;DHT22;22228;53.222;7.446;2023-02-26T00:43:30;-1.50;99.90
36186;DHT22;22228;53.222;7.446;2023-02-26T00:45:57;-1.40;99.90
36186;DHT22;22228;53.222;7.446;2023-02-26T00:48:28;-1.40;99.90
36186;DHT22;22228;53.222;7.446;2023-02-26T00:50:55;-1.40;99.90
36186;DHT22;22228;53.222;7.446;2023-02-26T00:53:23;-1.40;99.90
36186;DHT22;22228;53.222;7.446;2023-02-26T00:55:45;-1.40;99.90
36186;DHT22;22228;53.222;7.446;2023-02-26T00:58:06;-1.30;99.90
36186;DHT22;22228;53.222;7.446;2023-02-26T01:00:27;-1.40;99.90
36186;DHT22;22228;53.222;7.446;2023-02-26T01:02:51;-1.50;99.90
36186;DHT22;22228;53.222;7.446;2023-02-26T01:05:13;-1.50;99.90
36186;DHT22;22228;53.222;7.446;2023-02-26T01:07:39;-1.50;99.90
36186;DHT22;22228;53.222;7.446;2023-02-26T01:10:02;-1.60;99.90
36186;DHT22;22228;53.222;7.446;2023-02-26T01:12:24;-1.50;99.90
36186;DHT22;22228;53.222;7.446;2023-02-26T01:14:45;-1.50;99.90
36186;DHT22;22228;53.222;7.446;2023-02-26T04:00:47;-2.00;99.90
36186;DHT22;22228;53.222;7.446;2023-02-26T04:03:14;-2.10;99.90
36186;DHT22;22228;53.222;7.446;2023-02-26T04:05:40;-2.20;99.90
36186;DHT22;22228;53.222;7.446;2023-02-26T04:08:02;-2.20;99.90
36186;DHT22;22228;53.222;7.446;2023-02-26T04:10:28;-2.30;99.90
36186;DHT22;22228;53.222;7.446;2023-02-26T04:12:49;-2.30;99.90
36186;DHT22;22228;53.222;7.446;2023-02-26T04:17:36;-2.50;99.90
36186;DHT22;22228;53.222;7.446;2023-02-26T04:19:57;-2.40;99.90
36186;DHT22;22228;53.222;7.446;2023-02-26T04:22:17;-2.40;99.90
36186;DHT22;22228;53.222;7.446;2023-02-26T04:24:38;-2.40;99.90
36186;DHT22;22228;53.222;7.446;2023-02-26T04:26:59;-2.40;99.90
36186;DHT22;22228;53.222;7.446;2023-02-26T04:29:20;-2.40;99.90
36186;DHT22;22228;53.222;7.446;2023-02-26T04:31:41;-2.40;99.90
36186;DHT22;22228;53.222;7.446;2023-02-26T04:34:04;-2.40;99.90
36186;DHT22;22228;53.222;7.446;2023-02-26T04:36:25;-2.40;99.90
36186;DHT22;22228;53.222;7.446;2023-02-26T04:38:46;-2.40;99.90
36186;DHT22;22228;53.222;7.446;2023-02-26T04:41:06;-2.40;99.90
36186;DHT22;22228;53.222;7.446;2023-02-26T04:43:30;-2.40;99.90
36186;DHT22;22228;53.222;7.446;2023-02-26T04:46:06;-2.50;99.90
36186;DHT22;22228;53.222;7.446;2023-02-26T04:48:28;-2.50;99.90
36186;DHT22;22228;53.222;7.446;2023-02-26T04:50:51;-2.50;99.90
36186;DHT22;22228;53.222;7.446;2023-02-26T04:53:11;-2.50;99.90
36186;DHT22;22228;53.222;7.446;2023-02-26T04:55:33;-2.50;99.90
36186;DHT22;22228;53.222;7.446;2023-02-26T04:57:53;-2.40;99.90
36186;DHT22;22228;53.222;7.446;2023-02-26T05:00:17;-2.40;99.90
36186;DHT22;22228;53.222;7.446;2023-02-26T05:02:38;-2.40;99.90
36186;DHT22;22228;53.222;7.446;2023-02-26T05:04:59;-2.40;99.90
36186;DHT22;22228;53.222;7.446;2023-02-26T05:07:21;-2.40;99.90
36186;DHT22;22228;53.222;7.446;2023-02-26T05:09:42;-2.30;99.90
36186;DHT22;22228;53.222;7.446;2023-02-26T05:12:02;-2.30;99.90
36186;DHT22;22228;53.222;7.446;2023-02-26T05:14:23;-2.30;99.90
36186;DHT22;22228;53.222;7.446;2023-02-26T05:16:44;-2.30;99.90
36186;DHT22;22228;53.222;7.446;2023-02-26T05:19:05;-2.30;99.90
36186;DHT22;22228;53.222;7.446;2023-02-26T05:21:25;-2.30;99.90
36186;DHT22;22228;53.222;7.446;2023-02-26T05:23:47;-2.40;99.90
36186;DHT22;22228;53.222;7.446;2023-02-26T05:26:08;-2.40;99.90
36186;DHT22;22228;53.222;7.446;2023-02-26T05:28:28;-2.50;99.90
36186;DHT22;22228;53.222;7.446;2023-02-26T05:30:49;-2.40;99.90
36186;DHT22;22228;53.222;7.446;2023-02-26T05:33:09;-2.40;99.90
36186;DHT22;22228;53.222;7.446;2023-02-26T05:35:30;-2.40;99.90
36186;DHT22;22228;53.222;7.446;2023-02-26T05:37:50;-2.30;99.90
36186;DHT22;22228;53.222;7.446;2023-02-26T05:40:12;-2.30;99.90
36186;DHT22;22228;53.222;7.446;2023-02-26T05:42:33;-2.30;99.90
36186;DHT22;22228;53.222;7.446;2023-02-26T05:45:04;-2.30;99.90
36186;DHT22;22228;53.222;7.446;2023-02-26T05:47:25;-2.30;99.90
36186;DHT22;22228;53.222;7.446;2023-02-26T05:49:45;-2.30;99.90
36186;DHT22;22228;53.222;7.446;2023-02-26T05:52:06;-2.40;99.90
36186;DHT22;22228;53.222;7.446;2023-02-26T05:54:27;-2.40;99.90
36186;DHT22;22228;53.222;7.446;2023-02-26T05:56:49;-2.50;99.90
36186;DHT22;22228;53.222;7.446;2023-02-26T05:59:09;-2.50;99.90
36186;DHT22;22228;53.222;7.446;2023-02-26T06:01:30;-2.50;99.90
36186;DHT22;22228;53.222;7.446;2023-02-26T06:03:50;-2.50;99.90
36186;DHT22;22228;53.222;7.446;2023-02-26T06:06:11;-2.60;99.90
36186;DHT22;22228;53.222;7.446;2023-02-26T06:08:31;-2.60;99.90
36186;DHT22;22228;53.222;7.446;2023-02-26T06:10:52;-2.60;99.90
36186;DHT22;22228;53.222;7.446;2023-02-26T06:13:14;-2.50;99.90
36186;DHT22;22228;53.222;7.446;2023-02-26T06:15:34;-2.50;99.90
36186;DHT22;22228;53.222;7.446;2023-02-26T06:17:55;-2.50;99.90
36186;DHT22;22228;53.222;7.446;2023-02-26T06:20:15;-2.50;99.90
36186;DHT22;22228;53.222;7.446;2023-02-26T06:22:36;-2.50;99.90
36186;DHT22;22228;53.222;7.446;2023-02-26T06:24:56;-2.50;99.90
36186;DHT22;22228;53.222;7.446;2023-02-26T06:27:17;-2.60;99.90
36186;DHT22;22228;53.222;7.446;2023-02-26T06:29:39;-2.50;99.90
36186;DHT22;22228;53.222;7.446;2023-02-26T06:31:59;-2.50;99.90
36186;DHT22;22228;53.222;7.446;2023-02-26T06:34:20;-2.50;99.90
36186;DHT22;22228;53.222;7.446;2023-02-26T06:36:41;-2.50;99.90
36186;DHT22;22228;53.222;7.446;2023-02-26T06:39:01;-2.50;99.90
36186;DHT22;22228;53.222;7.446;2023-02-26T06:41:22;-2.50;99.90
36186;DHT22;22228;53.222;7.446;2023-02-26T06:43:42;-2.50;99.90
36186;DHT22;22228;53.222;7.446;2023-02-26T06:46:05;-2.50;99.90
36186;DHT22;22228;53.222;7.446;2023-02-26T06:48:26;-2.60;99.90
36186;DHT22;22228;53.222;7.446;2023-02-26T06:50:47;-2.50;99.90
36186;DHT22;22228;53.222;7.446;2023-02-26T06:53:07;-2.50;99.90
36186;DHT22;22228;53.222;7.446;2023-02-26T06:55:28;-2.50;99.90
36186;DHT22;22228;53.222;7.446;2023-02-26T06:57:48;-2.60;99.90
36186;DHT22;22228;53.222;7.446;2023-02-26T07:00:10;-2.60;99.90
36186;DHT22;22228;53.222;7.446;2023-02-26T07:02:32;-2.50;99.90
36186;DHT22;22228;53.222;7.446;2023-02-26T07:04:53;-2.50;99.90
36186;DHT22;22228;53.222;7.446;2023-02-26T07:07:15;-2.50;99.90
36186;DHT22;22228;53.222;7.446;2023-02-26T07:09:35;-2.50;99.90
36186;DHT22;22228;53.222;7.446;2023-02-26T07:11:56;-2.50;99.90
36186;DHT22;22228;53.222;7.446;2023-02-26T07:14:17;-2.40;99.90
36186;DHT22;22228;53.222;7.446;2023-02-26T07:16:38;-2.30;99.90
36186;DHT22;22228;53.222;7.446;2023-02-26T07:19:00;-2.30;99.90
36186;DHT22;22228;53.222;7.446;2023-02-26T07:21:20;-2.10;99.90
36186;DHT22;22228;53.222;7.446;2023-02-26T07:23:41;-2.10;99.90
36186;DHT22;22228;53.222;7.446;2023-02-26T07:26:01;-2.00;99.90
36186;DHT22;22228;53.222;7.446;2023-02-26T07:28:25;-2.00;99.90
36186;DHT22;22228;53.222;7.446;2023-02-26T07:30:45;-1.90;99.90
36186;DHT22;22228;53.222;7.446;2023-02-26T07:33:06;-1.80;99.90
36186;DHT22;22228;53.222;7.446;2023-02-26T07:35:28;-1.70;99.90
36186;DHT22;22228;53.222;7.446;2023-02-26T07:37:48;-1.70;99.90
36186;DHT22;22228;53.222;7.446;2023-02-26T07:40:11;-1.60;99.90
36186;DHT22;22228;53.222;7.446;2023-02-26T07:42:31;-1.50;99.90
36186;DHT22;22228;53.222;7.446;2023-02-26T07:44:52;-1.50;99.90
36186;DHT22;22228;53.222;7.446;2023-02-26T07:47:12;-1.50;99.90
36186;DHT22;22228;53.222;7.446;2023-02-26T07:49:33;-1.50;99.90
36186;DHT22;22228;53.222;7.446;2023-02-26T07:51:55;-1.60;99.90
36186;DHT22;22228;53.222;7.446;2023-02-26T07:54:15;-1.60;99.90
36186;DHT22;22228;53.222;7.446;2023-02-26T07:56:36;-1.60;99.90
36186;DHT22;22228;53.222;7.446;2023-02-26T07:58:58;-1.60;99.90
36186;DHT22;22228;53.222;7.446;2023-02-26T08:01:18;-1.60;99.90
36186;DHT22;22228;53.222;7.446;2023-02-26T08:03:39;-1.70;99.90
36186;DHT22;22228;53.222;7.446;2023-02-26T08:05:59;-1.60;99.90
36186;DHT22;22228;53.222;7.446;2023-02-26T08:08:22;-1.60;99.90
36186;DHT22;22228;53.222;7.446;2023-02-26T08:10:42;-1.50;99.90
36186;DHT22;22228;53.222;7.446;2023-02-26T08:13:03;-1.30;99.90
36186;DHT22;22228;53.222;7.446;2023-02-26T08:15:24;-1.20;99.90
36186;DHT22;22228;53.222;7.446;2023-02-26T08:17:44;-1.10;99.90
36186;DHT22;22228;53.222;7.446;2023-02-26T08:20:06;-0.90;99.90
36186;DHT22;22228;53.222;7.446;2023-02-26T08:22:27;-0.80;99.90
36186;DHT22;22228;53.222;7.446;2023-02-26T08:24:49;-0.60;99.90
36186;DHT22;22228;53.222;7.446;2023-02-26T08:27:13;-0.50;99.90
36186;DHT22;22228;53.222;7.446;2023-02-26T08:29:33;-0.40;99.90
36186;DHT22;22228;53.222;7.446;2023-02-26T08:31:54;-0.30;99.90
36186;DHT22;22228;53.222;7.446;2023-02-26T08:34:15;-0.20;99.90
36186;DHT22;22228;53.222;7.446;2023-02-26T08:36:36;0.00;99.90
36186;DHT22;22228;53.222;7.446;2023-02-26T08:38:57;0.20;99.90
36186;DHT22;22228;53.222;7.446;2023-02-26T08:41:19;0.30;99.90
36186;DHT22;22228;53.222;7.446;2023-02-26T08:43:40;0.40;99.90
36186;DHT22;22228;53.222;7.446;2023-02-26T08:49:29;0.60;99.90
36186;DHT22;22228;53.222;7.446;2023-02-26T08:51:50;0.80;99.90
36186;DHT22;22228;53.222;7.446;2023-02-26T08:54:10;1.00;99.90
36186;DHT22;22228;53.222;7.446;2023-02-26T08:56:32;1.10;99.90
36186;DHT22;22228;53.222;7.446;2023-02-26T08:58:53;1.30;99.90
36186;DHT22;22228;53.222;7.446;2023-02-26T09:01:13;1.40;99.90
36186;DHT22;22228;53.222;7.446;2023-02-26T09:03:34;1.50;99.90
36186;DHT22;22228;53.222;7.446;2023-02-26T09:05:55;1.60;99.90
36186;DHT22;22228;53.222;7.446;2023-02-26T09:08:15;1.80;99.90
36186;DHT22;22228;53.222;7.446;2023-02-26T09:10:45;1.90;99.90
36186;DHT22;22228;53.222;7.446;2023-02-26T09:13:07;2.10;99.90
36186;DHT22;22228;53.222;7.446;2023-02-26T09:15:27;2.20;99.90
36186;DHT22;22228;53.222;7.446;2023-02-26T09:17:50;2.20;99.90
36186;DHT22;22228;53.222;7.446;2023-02-26T09:20:11;2.30;99.90
36186;DHT22;22228;53.222;7.446;2023-02-26T09:22:35;2.40;99.90
36186;DHT22;22228;53.222;7.446;2023-02-26T09:24:56;2.50;99.90
36186;DHT22;22228;53.222;7.446;2023-02-26T09:27:16;2.50;99.90
36186;DHT22;22228;53.222;7.446;2023-02-26T09:29:38;2.60;99.90
36186;DHT22;22228;53.222;7.446;2023-02-26T09:31:58;2.70;99.90
36186;DHT22;22228;53.222;7.446;2023-02-26T09:34:19;2.80;99.90
36186;DHT22;22228;53.222;7.446;2023-02-26T09:36:40;2.90;99.90
36186;DHT22;22228;53.222;7.446;2023-02-26T09:39:02;3.10;99.90
36186;DHT22;22228;53.222;7.446;2023-02-26T09:41:25;3.20;99.90
36186;DHT22;22228;53.222;7.446;2023-02-26T09:43:55;3.30;99.90
36186;DHT22;22228;53.222;7.446;2023-02-26T09:46:28;3.40;99.90
36186;DHT22;22228;53.222;7.446;2023-02-26T09:48:50;3.40;99.90
36186;DHT22;22228;53.222;7.446;2023-02-26T09:51:16;3.50;99.90
36186;DHT22;22228;53.222;7.446;2023-02-26T09:53:39;3.50;99.90
36186;DHT22;22228;53.222;7.446;2023-02-26T09:56:03;3.60;99.90
36186;DHT22;22228;53.222;7.446;2023-02-26T09:58:28;3.70;99.90
36186;DHT22;22228;53.222;7.446;2023-02-26T10:00:55;3.70;99.90
36186;DHT22;22228;53.222;7.446;2023-02-26T10:03:26;3.80;99.90
36186;DHT22;22228;53.222;7.446;2023-02-26T10:08:38;3.90;99.90
36186;DHT22;22228;53.222;7.446;2023-02-26T10:11:10;4.00;99.90
36186;DHT22;22228;53.222;7.446;2023-02-26T10:13:36;4.00;99.90
36186;DHT22;22228;53.222;7.446;2023-02-26T10:16:00;4.00;99.90
36186;DHT22;22228;53.222;7.446;2023-02-26T10:18:28;4.00;99.90
36186;DHT22;22228;53.222;7.446;2023-02-26T10:20:54;4.00;99.90
36186;DHT22;22228;53.222;7.446;2023-02-26T10:23:21;4.00;99.90
36186;DHT22;22228;53.222;7.446;2023-02-26T10:25:46;4.00;99.90
36186;DHT22;22228;53.222;7.446;2023-02-26T10:28:20;4.00;99.90
36186;DHT22;22228;53.222;7.446;2023-02-26T10:30:51;4.20;99.90
36186;DHT22;22228;53.222;7.446;2023-02-26T10:33:20;4.20;99.90
36186;DHT22;22228;53.222;7.446;2023-02-26T10:35:49;4.30;99.90
36186;DHT22;22228;53.222;7.446;2023-02-26T10:38:14;4.30;99.90
36186;DHT22;22228;53.222;7.446;2023-02-26T10:40:38;4.30;99.90
36186;DHT22;22228;53.222;7.446;2023-02-26T10:43:07;4.40;99.90
36186;DHT22;22228;53.222;7.446;2023-02-26T10:45:38;4.40;99.90
36186;DHT22;22228;53.222;7.446;2023-02-26T10:48:12;4.50;99.90
36186;DHT22;22228;53.222;7.446;2023-02-26T10:50:36;4.50;99.90
36186;DHT22;22228;53.222;7.446;2023-02-26T10:52:59;4.60;99.90
36186;DHT22;22228;53.222;7.446;2023-02-26T10:55:29;4.70;99.90
36186;DHT22;22228;53.222;7.446;2023-02-26T10:58:03;4.60;99.90
36186;DHT22;22228;53.222;7.446;2023-02-26T11:00:24;4.60;99.90
36186;DHT22;22228;53.222;7.446;2023-02-26T11:02:46;4.70;99.90
36186;DHT22;22228;53.222;7.446;2023-02-26T11:05:17;4.80;99.90
36186;DHT22;22228;53.222;7.446;2023-02-26T11:07:38;4.90;99.90
36186;DHT22;22228;53.222;7.446;2023-02-26T11:10:00;5.00;99.90
36186;DHT22;22228;53.222;7.446;2023-02-26T11:12:21;5.00;99.90
36186;DHT22;22228;53.222;7.446;2023-02-26T11:14:44;5.10;99.90
36186;DHT22;22228;53.222;7.446;2023-02-26T11:17:10;5.10;99.90
36186;DHT22;22228;53.222;7.446;2023-02-26T11:19:35;5.00;99.90
36186;DHT22;22228;53.222;7.446;2023-02-26T11:21:55;4.90;99.90
36186;DHT22;22228;53.222;7.446;2023-02-26T11:24:22;4.90;99.90
36186;DHT22;22228;53.222;7.446;2023-02-26T11:26:49;4.90;99.90
36186;DHT22;22228;53.222;7.446;2023-02-26T11:29:14;4.90;99.90
36186;DHT22;22228;53.222;7.446;2023-02-26T11:31:34;4.90;99.90
36186;DHT22;22228;53.222;7.446;2023-02-26T11:33:59;5.00;99.90
36186;DHT22;22228;53.222;7.446;2023-02-26T11:36:24;5.00;99.90
36186;DHT22;22228;53.222;7.446;2023-02-26T11:38:51;5.10;99.90
36186;DHT22;22228;53.222;7.446;2023-02-26T11:41:13;5.10;99.90
36186;DHT22;22228;53.222;7.446;2023-02-26T11:43:36;5.20;99.90
36186;DHT22;22228;53.222;7.446;2023-02-26T11:46:00;5.20;99.90
36186;DHT22;22228;53.222;7.446;2023-02-26T11:48:24;5.20;99.90
36186;DHT22;22228;53.222;7.446;2023-02-26T11:50:48;5.20;99.90
36186;DHT22;22228;53.222;7.446;2023-02-26T11:53:16;5.10;99.90
36186;DHT22;22228;53.222;7.446;2023-02-26T11:55:38;5.10;99.90
36186;DHT22;22228;53.222;7.446;2023-02-26T11:58:14;5.00;99.90
36186;DHT22;22228;53.222;7.446;2023-02-26T12:00:38;4.90;99.90
36186;DHT22;22228;53.222;7.446;2023-02-26T12:02:59;4.90;99.90
36186;DHT22;22228;53.222;7.446;2023-02-26T12:05:22;5.00;99.90
36186;DHT22;22228;53.222;7.446;2023-02-26T12:07:43;5.20;99.90
36186;DHT22;22228;53.222;7.446;2023-02-26T12:10:13;5.50;99.90
36186;DHT22;22228;53.222;7.446;2023-02-26T12:12:49;5.60;99.90
36186;DHT22;22228;53.222;7.446;2023-02-26T12:15:24;5.80;99.90
36186;DHT22;22228;53.222;7.446;2023-02-26T12:18:07;5.90;99.90
36186;DHT22;22228;53.222;7.446;2023-02-26T12:20:34;5.80;99.90
36186;DHT22;22228;53.222;7.446;2023-02-26T12:23:13;5.70;99.90
36186;DHT22;22228;53.222;7.446;2023-02-26T12:25:52;5.60;99.90
36186;DHT22;22228;53.222;7.446;2023-02-26T12:34:14;5.40;99.90
36186;DHT22;22228;53.222;7.446;2023-02-26T12:36:49;5.40;99.90
36186;DHT22;22228;53.222;7.446;2023-02-26T12:39:24;5.30;99.90
36186;DHT22;22228;53.222;7.446;2023-02-26T12:41:58;5.40;99.90
36186;DHT22;22228;53.222;7.446;2023-02-26T12:44:49;5.50;99.90
36186;DHT22;22228;53.222;7.446;2023-02-26T12:47:27;5.70;99.90
36186;DHT22;22228;53.222;7.446;2023-02-26T12:53:06;5.60;99.90
36186;DHT22;22228;53.222;7.446;2023-02-26T12:55:36;5.40;99.90
36186;DHT22;22228;53.222;7.446;2023-02-26T12:58:19;5.40;99.90
36186;DHT22;22228;53.222;7.446;2023-02-26T13:01:00;5.40;99.90
36186;DHT22;22228;53.222;7.446;2023-02-26T13:06:43;5.50;99.90
36186;DHT22;22228;53.222;7.446;2023-02-26T13:09:12;5.50;99.90
36186;DHT22;22228;53.222;7.446;2023-02-26T13:11:46;5.50;99.90
36186;DHT22;22228;53.222;7.446;2023-02-26T13:14:21;5.60;99.90
36186;DHT22;22228;53.222;7.446;2023-02-26T13:16:49;5.70;99.90
36186;DHT22;22228;53.222;7.446;2023-02-26T13:19:20;5.60;99.90
36186;DHT22;22228;53.222;7.446;2023-02-26T13:21:47;5.60;99.90
36186;DHT22;22228;53.222;7.446;2023-02-26T13:24:11;5.60;99.90
36186;DHT22;22228;53.222;7.446;2023-02-26T13:26:34;5.70;99.90
36186;DHT22;22228;53.222;7.446;2023-02-26T13:28:58;5.70;99.90
36186;DHT22;22228;53.222;7.446;2023-02-26T13:31:27;5.70;99.90
36186;DHT22;22228;53.222;7.446;2023-02-26T13:33:48;5.60;99.90
36186;DHT22;22228;53.222;7.446;2023-02-26T13:36:10;5.30;99.90
36186;DHT22;22228;53.222;7.446;2023-02-26T13:38:38;5.20;99.90
36186;DHT22;22228;53.222;7.446;2023-02-26T13:41:04;5.20;99.90
36186;DHT22;22228;53.222;7.446;2023-02-26T13:43:54;5.30;99.90
36186;DHT22;22228;53.222;7.446;2023-02-26T13:46:26;5.40;99.90
36186;DHT22;22228;53.222;7.446;2023-02-26T13:48:56;5.60;99.90
36186;DHT22;22228;53.222;7.446;2023-02-26T13:51:28;5.60;99.90
36186;DHT22;22228;53.222;7.446;2023-02-26T13:53:58;5.70;99.90
36186;DHT22;22228;53.222;7.446;2023-02-26T13:56:46;5.70;99.90
36186;DHT22;22228;53.222;7.446;2023-02-26T13:59:29;5.50;99.90
36186;DHT22;22228;53.222;7.446;2023-02-26T14:01:53;5.50;99.90
36186;DHT22;22228;53.222;7.446;2023-02-26T14:04:23;5.30;99.90
36186;DHT22;22228;53.222;7.446;2023-02-26T14:06:44;5.30;99.90
36186;DHT22;22228;53.222;7.446;2023-02-26T14:09:34;5.30;99.90
36186;DHT22;22228;53.222;7.446;2023-02-26T14:11:59;5.20;99.90
36186;DHT22;22228;53.222;7.446;2023-02-26T14:14:28;5.30;99.90
36186;DHT22;22228;53.222;7.446;2023-02-26T14:16:53;5.30;99.90
36186;DHT22;22228;53.222;7.446;2023-02-26T14:19:27;5.30;99.90
36186;DHT22;22228;53.222;7.446;2023-02-26T14:21:49;5.30;99.90
36186;DHT22;22228;53.222;7.446;2023-02-26T14:24:14;5.20;99.90
36186;DHT22;22228;53.222;7.446;2023-02-26T14:26:37;5.10;99.90
36186;DHT22;22228;53.222;7.446;2023-02-26T14:29:11;5.10;99.90
36186;DHT22;22228;53.222;7.446;2023-02-26T14:31:52;5.10;99.90
36186;DHT22;22228;53.222;7.446;2023-02-26T14:34:14;5.10;99.90
36186;DHT22;22228;53.222;7.446;2023-02-26T14:36:41;5.20;99.90
36186;DHT22;22228;53.222;7.446;2023-02-26T14:39:05;5.30;99.90
36186;DHT22;22228;53.222;7.446;2023-02-26T14:41:31;5.50;99.90
36186;DHT22;22228;53.222;7.446;2023-02-26T14:43:59;5.60;99.90
36186;DHT22;22228;53.222;7.446;2023-02-26T14:46:20;5.50;99.90
36186;DHT22;22228;53.222;7.446;2023-02-26T14:48:41;5.40;99.90
36186;DHT22;22228;53.222;7.446;2023-02-26T14:51:10;5.50;99.90
36186;DHT22;22228;53.222;7.446;2023-02-26T14:53:55;5.50;99.90
36186;DHT22;22228;53.222;7.446;2023-02-26T14:56:25;5.50;99.90
36186;DHT22;22228;53.222;7.446;2023-02-26T14:59:17;5.50;99.90
36186;DHT22;22228;53.222;7.446;2023-02-26T15:01:46;5.30;99.90
36186;DHT22;22228;53.222;7.446;2023-02-26T15:04:25;5.20;99.90
36186;DHT22;22228;53.222;7.446;2023-02-26T15:07:03;5.10;99.90
36186;DHT22;22228;53.222;7.446;2023-02-26T15:09:35;5.00;99.90
36186;DHT22;22228;53.222;7.446;2023-02-26T15:12:11;5.10;99.90
36186;DHT22;22228;53.222;7.446;2023-02-26T15:14:54;5.00;99.90
36186;DHT22;22228;53.222;7.446;2023-02-26T15:17:30;4.90;99.90
36186;DHT22;22228;53.222;7.446;2023-02-26T15:20:03;4.90;99.90
36186;DHT22;22228;53.222;7.446;2023-02-26T15:22:36;4.80;99.90
36186;DHT22;22228;53.222;7.446;2023-02-26T15:25:00;4.80;99.90
36186;DHT22;22228;53.222;7.446;2023-02-26T15:27:21;4.70;99.90
36186;DHT22;22228;53.222;7.446;2023-02-26T15:29:43;4.70;99.90
36186;DHT22;22228;53.222;7.446;2023-02-26T15:32:13;4.60;99.90
36186;DHT22;22228;53.222;7.446;2023-02-26T15:34:34;4.70;99.90
36186;DHT22;22228;53.222;7.446;2023-02-26T15:36:56;4.90;99.90
36186;DHT22;22228;53.222;7.446;2023-02-26T15:39:18;5.00;99.90
36186;DHT22;22228;53.222;7.446;2023-02-26T15:41:38;5.00;99.90
36186;DHT22;22228;53.222;7.446;2023-02-26T15:44:02;5.00;99.90
36186;DHT22;22228;53.222;7.446;2023-02-26T15:46:27;5.00;99.90
36186;DHT22;22228;53.222;7.446;2023-02-26T15:48:48;4.90;99.90
36186;DHT22;22228;53.222;7.446;2023-02-26T15:51:11;4.80;99.90
36186;DHT22;22228;53.222;7.446;2023-02-26T15:53:34;4.70;99.90
36186;DHT22;22228;53.222;7.446;2023-02-26T15:55:57;4.50;99.90
36186;DHT22;22228;53.222;7.446;2023-02-26T15:58:21;4.40;99.90
36186;DHT22;22228;53.222;7.446;2023-02-26T16:00:42;4.20;99.90
36186;DHT22;22228;53.222;7.446;2023-02-26T16:03:04;4.10;99.90
36186;DHT22;22228;53.222;7.446;2023-02-26T16:05:25;4.10;99.90
36186;DHT22;22228;53.222;7.446;2023-02-26T16:07:46;4.00;99.90
36186;DHT22;22228;53.222;7.446;2023-02-26T16:10:15;3.90;99.90
36186;DHT22;22228;53.222;7.446;2023-02-26T16:12:39;3.90;99.90
36186;DHT22;22228;53.222;7.446;2023-02-26T16:15:04;3.90;99.90
36186;DHT22;22228;53.222;7.446;2023-02-26T16:17:29;3.90;99.90
36186;DHT22;22228;53.222;7.446;2023-02-26T16:19:53;3.90;99.90
36186;DHT22;22228;53.222;7.446;2023-02-26T16:22:20;3.90;99.90
36186;DHT22;22228;53.222;7.446;2023-02-26T16:24:42;3.90;99.90
36186;DHT22;22228;53.222;7.446;2023-02-26T16:27:04;3.90;99.90
36186;DHT22;22228;53.222;7.446;2023-02-26T16:29:28;3.80;99.90
36186;DHT22;22228;53.222;7.446;2023-02-26T16:31:52;3.70;99.90
36186;DHT22;22228;53.222;7.446;2023-02-26T16:34:35;3.70;99.90
36186;DHT22;22228;53.222;7.446;2023-02-26T16:37:08;3.60;99.90
36186;DHT22;22228;53.222;7.446;2023-02-26T16:39:30;3.60;99.90
36186;DHT22;22228;53.222;7.446;2023-02-26T16:42:01;3.60;99.90
36186;DHT22;22228;53.222;7.446;2023-02-26T16:44:48;3.50;99.90
36186;DHT22;22228;53.222;7.446;2023-02-26T16:47:09;3.40;99.90
36186;DHT22;22228;53.222;7.446;2023-02-26T16:49:32;3.40;99.90
36186;DHT22;22228;53.222;7.446;2023-02-26T16:51:53;3.40;99.90
36186;DHT22;22228;53.222;7.446;2023-02-26T16:54:19;3.30;99.90
36186;DHT22;22228;53.222;7.446;2023-02-26T16:56:41;3.30;99.90
36186;DHT22;22228;53.222;7.446;2023-02-26T16:59:05;3.20;99.90
36186;DHT22;22228;53.222;7.446;2023-02-26T17:01:27;3.10;99.90
36186;DHT22;22228;53.222;7.446;2023-02-26T17:03:50;3.00;99.90
36186;DHT22;22228;53.222;7.446;2023-02-26T17:06:16;3.00;99.90
36186;DHT22;22228;53.222;7.446;2023-02-26T17:08:46;2.90;92.40
36186;DHT22;22228;53.222;7.446;2023-02-26T17:11:17;2.90;61.50
36186;DHT22;22228;53.222;7.446;2023-02-26T17:13:41;2.90;48.70
36186;DHT22;22228;53.222;7.446;2023-02-26T17:16:04;2.90;30.90
36186;DHT22;22228;53.222;7.446;2023-02-26T17:18:25;2.80;25.00
36186;DHT22;22228;53.222;7.446;2023-02-26T17:20:46;2.80;25.90
36186;DHT22;22228;53.222;7.446;2023-02-26T17:23:07;2.80;21.90
36186;DHT22;22228;53.222;7.446;2023-02-26T17:25:33;2.80;4.40
36186;DHT22;22228;53.222;7.446;2023-02-26T17:28:06;2.70;38.80
36186;DHT22;22228;53.222;7.446;2023-02-26T17:30:26;2.60;24.60
36186;DHT22;22228;53.222;7.446;2023-02-26T17:32:51;2.60;43.00
36186;DHT22;22228;53.222;7.446;2023-02-26T17:35:13;2.60;50.50
36186;DHT22;22228;53.222;7.446;2023-02-26T17:37:34;2.50;35.70
36186;DHT22;22228;53.222;7.446;2023-02-26T17:39:55;2.50;41.00
36186;DHT22;22228;53.222;7.446;2023-02-26T17:42:18;2.40;51.30
36186;DHT22;22228;53.222;7.446;2023-02-26T17:44:43;2.50;43.40
36186;DHT22;22228;53.222;7.446;2023-02-26T17:47:04;2.40;50.20
36186;DHT22;22228;53.222;7.446;2023-02-26T17:49:24;2.30;43.20
36186;DHT22;22228;53.222;7.446;2023-02-26T17:51:45;2.30;47.90
36186;DHT22;22228;53.222;7.446;2023-02-26T17:57:37;2.10;68.70
36186;DHT22;22228;53.222;7.446;2023-02-26T18:04:17;2.00;93.80
36186;DHT22;22228;53.222;7.446;2023-02-26T18:06:38;2.00;98.40
36186;DHT22;22228;53.222;7.446;2023-02-26T18:11:37;2.10;83.90
36186;DHT22;22228;53.222;7.446;2023-02-26T18:12:58;2.10;98.10
36186;DHT22;22228;53.222;7.446;2023-02-26T18:15:19;2.20;99.70
36186;DHT22;22228;53.222;7.446;2023-02-26T18:17:41;2.20;90.80
36186;DHT22;22228;53.222;7.446;2023-02-26T18:23:15;2.30;96.20
36186;DHT22;22228;53.222;7.446;2023-02-26T18:28:57;2.50;94.00
36186;DHT22;22228;53.222;7.446;2023-02-26T18:31:18;2.60;73.70
36186;DHT22;22228;53.222;7.446;2023-02-26T18:33:39;2.60;80.50
36186;DHT22;22228;53.222;7.446;2023-02-26T18:36:03;2.60;79.40
36186;DHT22;22228;53.222;7.446;2023-02-26T18:38:26;2.70;71.60
36186;DHT22;22228;53.222;7.446;2023-02-26T18:40:47;2.60;72.60
36186;DHT22;22228;53.222;7.446;2023-02-26T18:43:08;2.60;62.40